Home > Products > Valid Products > TAF

000
FTUS43 KGRR 252300
TAFLAN
TAF
KLAN 252340Z 2600/2624 29011KT P6SM SKC=



000
FTUS43 KGRR 252300
TAFBTL
TAF
KBTL 252340Z 2600/2624 29011KT P6SM SKC=



000
FTUS43 KGRR 252300
TAFMKG
TAF
KMKG 252340Z 2600/2624 30008KT P6SM SKC=



000
FTUS43 KGRR 252300
TAFGRR
TAF
KGRR 252340Z 2600/2624 29008KT P6SM SKC=



000
FTUS43 KGRR 252300
TAFJXN
TAF
KJXN 252340Z 2600/2624 29011KT P6SM SKC=



000
FTUS43 KGRR 252300
TAFAZO
TAF
KAZO 252340Z 2600/2624 29011KT P6SM SKC=



000
FTUS43 KGRR 251700
TAFJXN
TAF
KJXN 251725Z 2518/2618 27012G18KT P6SM SCT021
     FM251900 29015G28KT P6SM SKC
     FM260000 29011KT P6SM SKC=



000
FTUS43 KGRR 251700
TAFAZO
TAF
KAZO 251725Z 2518/2618 30016KT P6SM FEW024
     FM251900 29015G25KT P6SM SKC
     FM260000 29011KT P6SM SKC=



000
FTUS43 KGRR 251700
TAFGRR
TAF
KGRR 251725Z 2518/2618 28014G24KT P6SM FEW020 SCT200
     FM252000 28020G32KT P6SM SKC
     FM260000 28014KT P6SM FEW250
     FM260200 29008KT P6SM SKC=



000
FTUS43 KGRR 251700
TAFMKG
TAF
KMKG 251725Z 2518/2618 29018G28KT P6SM SKC
     FM260100 30008KT P6SM SKC=



000
FTUS43 KGRR 251700
TAFLAN
TAF
KLAN 251725Z 2518/2618 26013KT P6SM SCT026
     FM251900 29015G28KT P6SM SKC
     FM260000 29011KT P6SM SKC=



000
FTUS43 KGRR 251700
TAFBTL
TAF
KBTL 251725Z 2518/2618 27014KT P6SM SCT020
     FM251900 29015G28KT P6SM SKC
     FM260000 29011KT P6SM SKC=



000
FTUS43 KGRR 251600 AAB
TAFGRR
TAF AMD
KGRR 251644Z 2517/2612 27014KT P6SM SCT020
     FM251800 27015G25KT P6SM SKC
     FM252300 28011KT P6SM SKC
     FM260600 29008KT P6SM SKC=



000
FTUS43 KGRR 251600 AAB
TAFGRR
TAF AMD
KGRR 251644Z 2517/2612 27014KT P6SM SCT020
     FM251800 27015G25KT P6SM SKC
     FM252300 28011KT P6SM SKC
     FM260600 29008KT P6SM SKC=



000
FTUS43 KGRR 251600 AAC
TAFBTL
TAF AMD
KBTL 251643Z 2517/2612 27015KT P6SM FEW016 SCT023
     FM251800 27015G25KT P6SM SKC
     FM252300 28011KT P6SM SKC
     FM260600 29008KT P6SM SKC=



000
FTUS43 KGRR 251600 AAC
TAFAZO
TAF AMD
KAZO 251643Z 2517/2612 28010KT 6SM HZ BKN016 OVC023
     FM251800 27015G25KT P6SM SKC
     FM252300 28011KT P6SM SKC
     FM260600 29008KT P6SM SKC=



000
FTUS43 KGRR 251600 AAC
TAFBTL
TAF AMD
KBTL 251643Z 2517/2612 27015KT P6SM FEW016 SCT023
     FM251800 27015G25KT P6SM SKC
     FM252300 28011KT P6SM SKC
     FM260600 29008KT P6SM SKC=



000
FTUS43 KGRR 251600 AAC
TAFAZO
TAF AMD
KAZO 251643Z 2517/2612 28010KT 6SM HZ BKN016 OVC023
     FM251800 27015G25KT P6SM SKC
     FM252300 28011KT P6SM SKC
     FM260600 29008KT P6SM SKC=



000
FTUS43 KGRR 251600 AAC
TAFJXN
TAF AMD
KJXN 251642Z 2517/2612 28012G19KT P6SM SCT013 OVC020
     FM252300 28011KT P6SM SKC
     FM260600 29008KT P6SM SKC=



000
FTUS43 KGRR 251600 AAC
TAFJXN
TAF AMD
KJXN 251642Z 2517/2612 28012G19KT P6SM SCT013 OVC020
     FM252300 28011KT P6SM SKC
     FM260600 29008KT P6SM SKC=



000
FTUS43 KGRR 251600 AAC
TAFLAN
TAF AMD
KLAN 251642Z 2517/2612 26013KT 4SM HZ FEW013 BKN020
     FM251800 27015G25KT P6SM SKC
     FM252300 28011KT P6SM SKC
     FM260600 29008KT P6SM SKC=



000
FTUS43 KGRR 251600 AAC
TAFLAN
TAF AMD
KLAN 251642Z 2517/2612 26013KT 4SM HZ FEW013 BKN020
     FM251800 27015G25KT P6SM SKC
     FM252300 28011KT P6SM SKC
     FM260600 29008KT P6SM SKC=



000
FTUS43 KGRR 251400 AAB
TAFJXN
TAF AMD
KJXN 251414Z 2514/2612 25011G16KT 6SM BR OVC009
     FM251500 26014G24KT 5SM BR BKN015
     FM251700 27014G24KT P6SM SKC
     FM252300 28011KT P6SM SKC
     FM260600 29008KT P6SM SKC=



000
FTUS43 KGRR 251400 AAB
TAFLAN
TAF AMD
KLAN 251414Z 2514/2612 26018G22KT 4SM BR OVC010
     FM251500 27018G25KT 5SM BR OVC009
     FM251600 27016G26KT P6SM SCT015
     FM251700 27014G24KT P6SM SKC
     FM252300 28011KT P6SM SKC
     FM260600 29008KT P6SM SKC=



000
FTUS43 KGRR 251400 AAB
TAFBTL
TAF AMD
KBTL 251412Z 2514/2612 26013KT 5SM HZ OVC008
     FM251500 26010KT 6SM BR BKN015
     FM251700 27014G24KT P6SM SKC
     FM252300 28011KT P6SM SKC
     FM260600 29008KT P6SM SKC=



000
FTUS43 KGRR 251400 AAB
TAFAZO
TAF AMD
KAZO 251411Z 2514/2612 27012G18KT 4SM BR OVC008
     FM251500 26010KT 5SM BR BKN015
     FM251700 27014G24KT P6SM SKC
     FM252300 28011KT P6SM SKC
     FM260600 29008KT P6SM SKC=



000
FTUS43 KGRR 251300 AAA
TAFLAN
TAF AMD
KLAN 251329Z 2513/2612 24010KT 5SM HZ OVC012
     FM251400 27009KT 2SM BR OVC005
     FM251500 26010KT 5SM BR BKN015
     FM251700 27014G24KT P6SM SKC
     FM252300 28011KT P6SM SKC
     FM260600 29008KT P6SM SKC=



000
FTUS43 KGRR 251300 AAA
TAFBTL
TAF AMD
KBTL 251329Z 2513/2612 27011KT 6SM HZ OVC009
     FM251400 27009KT 4SM BR OVC005
     FM251500 26010KT 6SM BR BKN015
     FM251700 27014G24KT P6SM SKC
     FM252300 28011KT P6SM SKC
     FM260600 29008KT P6SM SKC=



000
FTUS43 KGRR 251300 AAA
TAFJXN
TAF AMD
KJXN 251329Z 2513/2612 24007KT 6SM BR OVC011
     FM251400 27009KT 2SM BR OVC005
     FM251500 26010KT 5SM BR BKN015
     FM251700 27014G24KT P6SM SKC
     FM252300 28011KT P6SM SKC
     FM260600 29008KT P6SM SKC=



000
FTUS43 KGRR 251300 AAA
TAFAZO
TAF AMD
KAZO 251328Z 2513/2612 27009KT 4SM BR BKN008
     FM251400 27009KT 2SM BR OVC005
     FM251500 26010KT 5SM BR BKN015
     FM251700 27014G24KT P6SM SKC
     FM252300 28011KT P6SM SKC
     FM260600 29008KT P6SM SKC=



000
FTUS43 KGRR 251300 AAA
TAFGRR
TAF AMD
KGRR 251327Z 2513/2612 27012KT 2SM BR OVC006
     FM251500 27011KT 5SM BR BKN015
     FM251700 27014G25KT P6SM SKC
     FM252300 28011KT P6SM SKC
     FM260600 29008KT P6SM SKC=



000
FTUS43 KGRR 251300 AAA
TAFMKG
TAF AMD
KMKG 251326Z 2513/2612 28007KT 4SM BR OVC009
     FM251500 29012G20KT P6SM SCT015
     FM251700 29014G26KT P6SM SKC
     FM252300 31012KT P6SM SKC
     FM260900 32008KT P6SM SKC=



000
FTUS43 KGRR 251100 RRA
TAFMKG
TAF
KMKG 251146Z 2512/2612 27010KT P6SM SCT015
      TEMPO 2512/2514 BKN015
     FM251400 29012G20KT P6SM SKC
     FM251700 29014G26KT P6SM SKC
     FM252300 31012KT P6SM SKC
     FM260900 32008KT P6SM SKC=



000
FTUS43 KGRR 251100 RRA
TAFBTL
TAF
KBTL 251146Z 2512/2612 23010KT P6SM BKN015
      TEMPO 2512/2515 SCT015
     FM251500 25012G20KT P6SM SCT030
     FM251800 27014G24KT P6SM SKC
     FM252300 28011KT P6SM SKC
     FM260600 29008KT P6SM SKC=



000
FTUS43 KGRR 251100 RRA
TAFGRR
TAF
KGRR 251146Z 2512/2612 24010KT P6SM BKN015
      TEMPO 2512/2515 SCT015
     FM251500 26012G20KT P6SM SCT030
     FM251700 27014G25KT P6SM SKC
     FM252300 28011KT P6SM SKC
     FM260600 29008KT P6SM SKC=



000
FTUS43 KGRR 251100 RRA
TAFLAN
TAF
KLAN 251146Z 2512/2612 23010KT P6SM BKN015
      TEMPO 2512/2516 SCT015
     FM251600 26012G20KT P6SM SCT030
     FM251800 27014G24KT P6SM SKC
     FM252300 28011KT P6SM SKC
     FM260600 29008KT P6SM SKC=



000
FTUS43 KGRR 251100 RRA
TAFAZO
TAF
KAZO 251146Z 2512/2612 25010KT P6SM BKN015
      TEMPO 2512/2515 SCT015
     FM251500 26012G20KT P6SM SCT030
     FM251700 27014G24KT P6SM SKC
     FM252300 28011KT P6SM SKC
     FM260600 29008KT P6SM SKC=



000
FTUS43 KGRR 251100 RRA
TAFJXN
TAF
KJXN 251146Z 2512/2612 23010KT P6SM BKN015
      TEMPO 2512/2516 SCT015
     FM251600 25012G20KT P6SM SCT030
     FM251800 27014G24KT P6SM SKC
     FM252300 28011KT P6SM SKC
     FM260600 29008KT P6SM SKC=



000
FTUS43 KGRR 251100 RRA
TAFAZO
TAF
KAZO 251146Z 2512/2612 25010KT P6SM BKN015
      TEMPO 2512/2515 SCT015
     FM251500 26012G20KT P6SM SCT030
     FM251700 27014G24KT P6SM SKC
     FM252300 28011KT P6SM SKC
     FM260600 29008KT P6SM SKC=



000
FTUS43 KGRR 251100 RRA
TAFLAN
TAF
KLAN 251146Z 2512/2612 23010KT P6SM BKN015
      TEMPO 2512/2516 SCT015
     FM251600 26012G20KT P6SM SCT030
     FM251800 27014G24KT P6SM SKC
     FM252300 28011KT P6SM SKC
     FM260600 29008KT P6SM SKC=



000
FTUS43 KGRR 251100 RRA
TAFMKG
TAF
KMKG 251146Z 2512/2612 27010KT P6SM SCT015
      TEMPO 2512/2514 BKN015
     FM251400 29012G20KT P6SM SKC
     FM251700 29014G26KT P6SM SKC
     FM252300 31012KT P6SM SKC
     FM260900 32008KT P6SM SKC=



000
FTUS43 KGRR 251100 RRA
TAFJXN
TAF
KJXN 251146Z 2512/2612 23010KT P6SM BKN015
      TEMPO 2512/2516 SCT015
     FM251600 25012G20KT P6SM SCT030
     FM251800 27014G24KT P6SM SKC
     FM252300 28011KT P6SM SKC
     FM260600 29008KT P6SM SKC=



000
FTUS43 KGRR 251100 RRA
TAFGRR
TAF
KGRR 251146Z 2512/2612 24010KT P6SM BKN015
      TEMPO 2512/2515 SCT015
     FM251500 26012G20KT P6SM SCT030
     FM251700 27014G25KT P6SM SKC
     FM252300 28011KT P6SM SKC
     FM260600 29008KT P6SM SKC=



000
FTUS43 KGRR 251100 RRA
TAFBTL
TAF
KBTL 251146Z 2512/2612 23010KT P6SM BKN015
      TEMPO 2512/2515 SCT015
     FM251500 25012G20KT P6SM SCT030
     FM251800 27014G24KT P6SM SKC
     FM252300 28011KT P6SM SKC
     FM260600 29008KT P6SM SKC=



000
FTUS43 KGRR 250800 AAA
TAFLAN
TAF AMD
KLAN 250811Z 2508/2606 22005KT 5SM BR BKN045
     FM251400 28016G24KT P6SM SCT040
     FM260200 28007KT P6SM SKC=



000
FTUS43 KGRR 250800 AAA
TAFMKG
TAF AMD
KMKG 250809Z 2508/2606 23006KT P6SM SCT015
      TEMPO 2508/2510 BKN015
     FM251230 28012G20KT P6SM SCT040=



000
FTUS43 KGRR 250500
TAFBTL
TAF
KBTL 250540Z 2506/2606 20004KT P6SM SCT040
     FM250815 22004KT 6SM BR SCT007 BKN040
     FM251400 28015G23KT P6SM SCT040
     FM260200 28007KT P6SM SKC=



000
FTUS43 KGRR 250500
TAFAZO
TAF
KAZO 250540Z 2506/2606 20004KT 2SM BR BKN080
     FM250745 21003KT 4SM BR SCT007 BKN040
     FM251400 29014G22KT P6SM SCT040=



000
FTUS43 KGRR 250500
TAFLAN
TAF
KLAN 250540Z 2506/2606 20003KT 5SM BR SCT040
     FM250900 23005KT 4SM BR BKN007
      TEMPO 2510/2512 SCT007
     FM251400 28016G24KT P6SM SCT040
     FM260200 28007KT P6SM SKC=



000
FTUS43 KGRR 250500
TAFJXN
TAF
KJXN 250540Z 2506/2606 22004KT 4SM BR SCT040
      TEMPO 2506/2507 2SM BR
     FM250845 23004KT 4SM BR SCT007 BKN025
     FM251400 28013G21KT P6SM SCT040
     FM260000 28006KT P6SM SKC=



000
FTUS43 KGRR 250500
TAFMKG
TAF
KMKG 250540Z 2506/2606 20004KT 4SM BR BKN080
     FM250630 22005KT 4SM BR SCT007 BKN040
     FM251230 28012G20KT P6SM SCT040=



000
FTUS43 KGRR 250500
TAFGRR
TAF
KGRR 250540Z 2506/2606 20004KT 4SM BR BKN080
     FM250800 22005KT 4SM BR SCT007 BKN040
     FM251400 27013G21KT P6SM SCT040
     FM260300 29007KT P6SM SKC=



000
FTUS43 KGRR 250300 AAB
TAFAZO
TAF AMD
KAZO 250333Z 2504/2524 VRB03KT 2SM BR SCT040
      TEMPO 2504/2506 4SM BR
     FM250600 18005KT 2SM BR OVC007
     FM251200 24005KT 1 1/2SM BR OVC007
     FM251500 26009KT 4SM BR OVC015
     FM251800 28012G20KT P6SM SCT250=



000
FTUS43 KGRR 250300 AAB
TAFAZO
TAF AMD
KAZO 250333Z 2504/2524 VRB03KT 2SM BR SCT040
      TEMPO 2504/2506 4SM BR
     FM250600 18005KT 2SM BR OVC007
     FM251200 24005KT 1 1/2SM BR OVC007
     FM251500 26009KT 4SM BR OVC015
     FM251800 28012G20KT P6SM SCT250=



000
FTUS43 KGRR 250200 AAA
TAFAZO
TAF AMD
KAZO 250204Z 2502/2524 VRB03KT 5SM BR SCT040
     FM250400 17003KT 4SM BR SKC
     FM250600 18005KT 2SM BR OVC007
     FM251200 24005KT 1 1/2SM BR OVC007
     FM251500 26009KT 4SM BR OVC015
     FM251800 28012G20KT P6SM SCT250=



000
FTUS43 KGRR 250200 AAA
TAFGRR
TAF AMD
KGRR 250202Z 2502/2524 20003KT 5SM BR SCT007
     FM250600 21005KT 4SM BR OVC007
     FM251500 27010KT P6SM BKN015
     FM251800 28014G22KT P6SM SCT250=



000
FTUS43 KGRR 250100 AAA
TAFMKG
TAF AMD
KMKG 250106Z 2501/2524 22006KT 4SM BR SCT003 BKN035
     FM250600 15003KT 4SM BR OVC007
     FM251200 26006KT 4SM BR OVC015
     FM251500 29010G16KT P6SM SKC=



000
FTUS43 KGRR 242300
TAFLAN
TAF
KLAN 242330Z 2500/2524 18003KT P6SM SKC
     FM250400 18006KT 4SM BR SKC
     FM251000 22008KT 1SM BR OVC007
     FM251500 26011KT 4SM BR OVC015
     FM252100 28011G18KT P6SM SKC=



000
FTUS43 KGRR 242300
TAFGRR
TAF
KGRR 242330Z 2500/2524 18004KT P6SM SKC
     FM250600 21005KT 4SM BR OVC007
     FM251500 27010KT P6SM BKN015
     FM251800 28014G22KT P6SM SCT250=



000
FTUS43 KGRR 242300
TAFJXN
TAF
KJXN 242330Z 2500/2524 21004KT P6SM SKC
     FM250400 18005KT 4SM BR SKC
     FM250600 18006KT 2SM BR SKC
     FM250900 22008KT 1SM BR OVC007
     FM251500 26011KT 4SM BR OVC015
     FM252100 28011G18KT P6SM SKC=



000
FTUS43 KGRR 242300
TAFAZO
TAF
KAZO 242330Z 2500/2524 19003KT P6SM SKC
     FM250400 17003KT 4SM BR SKC
     FM250600 18005KT 2SM BR OVC007
     FM251200 24005KT 1 1/2SM BR OVC007
     FM251500 26009KT 4SM BR OVC015
     FM251800 28012G20KT P6SM SCT250=



000
FTUS43 KGRR 242300
TAFBTL
TAF
KBTL 242330Z 2500/2524 19003KT P6SM SKC
     FM250400 17003KT 4SM BR SKC
     FM250600 18005KT 2SM BR OVC007
     FM251200 24005KT 1 1/2SM BR OVC007
     FM251500 26009KT 4SM BR OVC015
     FM251800 28012G20KT P6SM SCT250=



000
FTUS43 KGRR 242300
TAFMKG
TAF
KMKG 242330Z 2500/2524 23008KT P6SM BKN009
     FM250130 18005KT P6SM SCT015
     FM250600 15003KT 4SM BR OVC007
     FM251200 26006KT 4SM BR OVC015
     FM251500 29010G16KT P6SM SKC=



000
FTUS43 KGRR 241700
TAFGRR
TAF
KGRR 241735Z 2418/2518 25007KT P6SM BKN045
     FM250000 22003KT P6SM SCT250
     FM250300 18004KT P6SM SKC
     FM250600 16005KT P6SM SCT250
     FM250900 21005KT 4SM BR OVC007
     FM251500 27010KT P6SM BKN015=



000
FTUS43 KGRR 241700
TAFBTL
TAF
KBTL 241735Z 2418/2518 20005KT P6SM OVC035
     FM250300 19003KT P6SM SKC
     FM250600 18003KT 4SM BR SKC
     FM250900 18005KT 2SM BR OVC007
     FM251200 24005KT 1 1/2SM BR OVC007
     FM251500 26009KT 4SM BR OVC015=



000
FTUS43 KGRR 241700
TAFAZO
TAF
KAZO 241735Z 2418/2518 19006KT P6SM OVC035
     FM250300 19003KT P6SM SKC
     FM250600 17003KT 4SM BR SKC
     FM250900 18005KT 2SM BR OVC007
     FM251200 24005KT 1 1/2SM BR OVC007
     FM251500 26009KT 4SM BR OVC015=



000
FTUS43 KGRR 241700
TAFLAN
TAF
KLAN 241735Z 2418/2518 26005KT P6SM OVC027
     FM242000 24007KT P6SM BKN050
     FM250300 18003KT P6SM SKC
     FM250900 18006KT 4SM BR SKC
     FM251200 22008KT 1SM BR OVC007
     FM251500 26011KT 4SM BR OVC015=



000
FTUS43 KGRR 241700
TAFMKG
TAF
KMKG 241735Z 2418/2518 25006KT P6SM OVC009
     FM241900 23007KT P6SM BKN011
     FM250000 18005KT P6SM SCT035
     FM250900 15003KT 4SM BR OVC007
     FM251200 26006KT 4SM BR OVC015
     FM251500 29008KT P6SM SKC=



000
FTUS43 KGRR 241700
TAFJXN
TAF
KJXN 241735Z 2418/2518 23004KT P6SM OVC026
     FM242100 20005KT P6SM BKN050
     FM250200 18004KT P6SM SKC
     FM250600 18005KT 4SM BR SKC
     FM250900 18006KT 2SM BR SKC
     FM251200 22008KT 1SM BR OVC007
     FM251500 26011KT 4SM BR OVC015=



000
FTUS43 KGRR 241600 AAA
TAFJXN
TAF AMD
KJXN 241652Z 2417/2512 23004KT P6SM OVC028
     FM241900 23008KT P6SM BKN035=



000
FTUS43 KGRR 241600 AAC
TAFBTL
TAF AMD
KBTL 241651Z 2417/2512 21005KT P6SM SCT024 OVC035
     FM241800 23009KT P6SM SCT035
     FM251000 20008KT P6SM OVC020=



000
FTUS43 KGRR 241600 AAA
TAFLAN
TAF AMD
KLAN 241651Z 2417/2512 23004KT 6SM HZ OVC029
     FM241900 23008KT P6SM BKN035=



000
FTUS43 KGRR 241600 AAB
TAFMKG
TAF AMD
KMKG 241650Z 2417/2512 26004KT P6SM BKN015
     FM241900 23007KT P6SM BKN025
     FM242100 23009KT P6SM SCT035
     FM250900 22010KT P6SM OVC020=



000
FTUS43 KGRR 241600 AAC
TAFGRR
TAF AMD
KGRR 241650Z 2417/2512 25007KT P6SM SCT020 BKN045
     FM241800 23005KT P6SM SCT035
     FM251000 20008KT P6SM OVC020=



000
FTUS43 KGRR 241500 AAB
TAFAZO
TAF AMD
KAZO 241516Z 2415/2512 18004KT P6SM OVC022
     FM241800 23009KT P6SM SCT035
     FM251000 20008KT P6SM OVC020=



000
FTUS43 KGRR 241500 AAB
TAFBTL
TAF AMD
KBTL 241516Z 2415/2512 23004KT P6SM OVC023
     FM241800 23009KT P6SM SCT035
     FM251000 20008KT P6SM OVC020=



000
FTUS43 KGRR 241500 AAB
TAFGRR
TAF AMD
KGRR 241515Z 2415/2512 21005KT P6SM OVC019
     FM241600 22006KT P6SM BKN025
     FM241800 23005KT P6SM SCT035
     FM251000 20008KT P6SM OVC020=



000
FTUS43 KGRR 241500 AAA
TAFMKG
TAF AMD
KMKG 241513Z 2415/2512 25005KT 6SM HZ OVC009
     FM241700 24007KT P6SM OVC019
     FM242000 23009KT P6SM SCT035
     FM250900 22010KT P6SM OVC020=



000
FTUS43 KGRR 241300 AAA
TAFGRR
TAF AMD
KGRR 241331Z 2414/2512 19005KT P6SM OVC025
     FM242100 23009KT P6SM SCT035
     FM251000 20008KT P6SM OVC020=



000
FTUS43 KGRR 241300 AAA
TAFBTL
TAF AMD
KBTL 241331Z 2414/2512 20003KT 6SM HZ OVC026
     FM241400 22008KT 4SM BR OVC022
     FM241700 23006KT 6SM HZ OVC030
     FM241900 23009KT P6SM BKN035
     FM251100 20007KT P6SM OVC020=



000
FTUS43 KGRR 241300 AAA
TAFAZO
TAF AMD
KAZO 241329Z 2413/2512 23006KT 4SM HZ OVC025
     FM242200 23009KT P6SM SCT035
     FM251000 20008KT P6SM OVC020=



000
FTUS43 KGRR 241100
TAFGRR
TAF
KGRR 241129Z 2412/2512 22008KT P6SM OVC025
      TEMPO 2412/2414 OVC035
     FM242100 23009KT P6SM SCT035
     FM251000 20008KT P6SM OVC020=



000
FTUS43 KGRR 241100
TAFLAN
TAF
KLAN 241129Z 2412/2512 22005KT P6SM OVC035
      TEMPO 2412/2414 5SM BR
     FM241900 23008KT P6SM BKN035=



000
FTUS43 KGRR 241100
TAFJXN
TAF
KJXN 241129Z 2412/2512 22007KT P6SM OVC035
     FM241900 23008KT P6SM BKN035=



000
FTUS43 KGRR 241100
TAFBTL
TAF
KBTL 241129Z 2412/2512 18005KT P6SM OVC035
     FM241500 22008KT P6SM OVC030
     FM241900 23009KT P6SM BKN035
     FM251100 20007KT P6SM OVC020=



000
FTUS43 KGRR 241100
TAFMKG
TAF
KMKG 241129Z 2412/2512 23006KT P6SM OVC015
     FM241700 23009KT P6SM OVC025
     FM242000 23009KT P6SM SCT035
     FM250900 22010KT P6SM OVC020=



000
FTUS43 KGRR 241100
TAFAZO
TAF
KAZO 241129Z 2412/2512 18005KT 5SM HZ OVC035
     FM241400 22008KT P6SM OVC025
     FM242200 23009KT P6SM SCT035
     FM251000 20008KT P6SM OVC020=



000
FTUS43 KGRR 240800 AAA
TAFMKG
TAF AMD
KMKG 240815Z 2408/2506 VRB03KT P6SM OVC025
     FM241100 22003KT 6SM BR OVC015
     FM241500 22006KT P6SM OVC025
     FM241800 22006KT P6SM BKN040
     FM242300 20006KT P6SM SCT040=



000
FTUS43 KGRR 240800 AAA
TAFMKG
TAF AMD
KMKG 240815Z 2408/2506 VRB03KT P6SM OVC025
     FM241100 22003KT 6SM BR OVC015
     FM241500 22006KT P6SM OVC025
     FM241800 22006KT P6SM BKN040
     FM242300 20006KT P6SM SCT040=



000
FTUS43 KGRR 240500
TAFLAN
TAF
KLAN 240531Z 2406/2506 VRB03KT P6SM BKN250
     FM241200 22004KT P6SM BKN040
     FM250300 21004KT P6SM SCT040=



000
FTUS43 KGRR 240500
TAFAZO
TAF
KAZO 240531Z 2406/2506 VRB03KT 6SM BR BKN250
     FM241000 VRB03KT 6SM BR BKN040
     FM241600 22006KT P6SM OVC025
     FM242000 22006KT P6SM BKN040
     FM250200 20004KT P6SM SCT040=



000
FTUS43 KGRR 240500
TAFJXN
TAF
KJXN 240531Z 2406/2506 VRB03KT P6SM BKN250
     FM241500 24006KT P6SM BKN040
     FM250500 22004KT P6SM SCT040=



000
FTUS43 KGRR 240500
TAFBTL
TAF
KBTL 240531Z 2406/2506 20003KT P6SM BKN250
     FM241115 22004KT P6SM SCT025 BKN040
     FM250300 21006KT P6SM SCT040=



000
FTUS43 KGRR 240500
TAFMKG
TAF
KMKG 240531Z 2406/2506 18003KT P6SM BKN040
     FM240945 VRB03KT P6SM OVC025
     FM241130 22003KT 6SM BR OVC015
     FM241500 22006KT P6SM OVC025
     FM241800 22006KT P6SM BKN040
     FM242300 20006KT P6SM SCT040=



000
FTUS43 KGRR 240500
TAFGRR
TAF
KGRR 240531Z 2406/2506 17003KT P6SM BKN080
     FM240900 20004KT P6SM BKN040
     FM241400 22005KT P6SM OVC025
     FM242000 22006KT P6SM BKN040
     FM250200 20005KT P6SM SCT040=



000
FTUS43 KGRR 232300 RRA
TAFJXN
TAF
KJXN 232340Z 2400/2424 22003KT P6SM OVC200
     FM241000 20003KT 5SM BR OVC035
     FM241800 23007KT P6SM BKN035=



000
FTUS43 KGRR 232300 RRA
TAFBTL
TAF
KBTL 232340Z 2400/2424 17004KT P6SM OVC200
     FM240800 20003KT 5SM BR OVC035
     FM241800 23007KT P6SM BKN035=



000
FTUS43 KGRR 232300 RRA
TAFMKG
TAF
KMKG 232340Z 2400/2424 19005KT P6SM VCSH SCT025 OVC120
     FM240600 20003KT 6SM BR OVC025
     FM241200 20004KT 5SM BR OVC015
     FM241500 21005KT 6SM BR OVC025
     FM241800 22008KT P6SM BKN035=



000
FTUS43 KGRR 232300 RRA
TAFLAN
TAF
KLAN 232340Z 2400/2424 22003KT P6SM OVC200
     FM241000 20003KT 5SM BR OVC035
     FM241800 23007KT P6SM BKN035=



000
FTUS43 KGRR 232300 RRA
TAFAZO
TAF
KAZO 232340Z 2400/2424 17004KT P6SM OVC200
     FM240800 20003KT 5SM BR OVC035
     FM241800 23007KT P6SM BKN035=



000
FTUS43 KGRR 232300 RRA
TAFGRR
TAF
KGRR 232340Z 2400/2424 17004KT P6SM OVC150
     FM240600 20004KT P6SM OVC035
     FM241000 21004KT 5SM BR OVC025
     FM241800 23007KT P6SM BKN035=



000
FTUS43 KGRR 231700
TAFMKG
TAF
KMKG 231722Z 2318/2418 21012KT P6SM BKN250
     FM240300 16004KT P6SM VCSH OVC100
     FM240900 20003KT 4SM BR OVC025
     FM241400 21003KT 6SM BR OVC015=



000
FTUS43 KGRR 231700
TAFBTL
TAF
KBTL 231722Z 2318/2418 19007KT P6SM BKN250
     FM240000 17004KT P6SM OVC150
     FM241200 15003KT 3SM BR OVC025
     FM241600 20002KT P6SM OVC026=



000
FTUS43 KGRR 231700
TAFAZO
TAF
KAZO 231722Z 2318/2418 21006KT P6SM BKN250
     FM240000 17004KT P6SM OVC150
     FM241000 15003KT 3SM BR OVC025
     FM241500 20002KT P6SM OVC026=



000
FTUS43 KGRR 231700
TAFJXN
TAF
KJXN 231722Z 2318/2418 18006KT P6SM BKN250
     FM240300 17004KT P6SM OVC150
     FM241500 15003KT P6SM OVC025=



000
FTUS43 KGRR 231700
TAFGRR
TAF
KGRR 231722Z 2318/2418 23008KT P6SM BKN250
     FM240000 17004KT P6SM OVC150
     FM241000 15003KT 3SM BR OVC025
     FM241400 20002KT P6SM OVC015=



000
FTUS43 KGRR 231700
TAFLAN
TAF
KLAN 231722Z 2318/2418 18006KT P6SM BKN250
     FM240300 17004KT P6SM OVC150
     FM241500 15003KT P6SM OVC025=



000
FTUS43 KGRR 231600 AAD
TAFGRR
TAF AMD
KGRR 231631Z 2317/2412 25004KT P6SM FEW012 BKN230
     FM240300 20006KT P6SM -RA BKN050 OVC100=



000
FTUS43 KGRR 231500 AAC
TAFGRR
TAF AMD
KGRR 231503Z 2315/2412 VRB05KT 5SM BR FEW004 BKN230
     FM231700 19009KT P6SM BKN200
     FM240300 20006KT P6SM -RA BKN050 OVC100=



000
FTUS43 KGRR 231500 AAC
TAFMKG
TAF AMD
KMKG 231503Z 2315/2412 12006KT 4SM BR SCT003 BKN023
     FM231600 16008KT P6SM SCT025 BKN250
     FM231900 19009KT P6SM BKN200
     FM240300 20006KT P6SM -RA BKN050 OVC100=



000
FTUS43 KGRR 231500 AAB
TAFBTL
TAF AMD
KBTL 231502Z 2315/2412 22007KT P6SM BKN250
     FM240400 21006KT 5SM BR VCSH BKN050 OVC100=



000
FTUS43 KGRR 231500 AAC
TAFAZO
TAF AMD
KAZO 231502Z 2315/2412 23005KT 5SM BR SKC
     FM231600 19006KT P6SM BKN250
     FM231900 20009KT P6SM BKN200
     FM240300 21006KT 5SM -RA BR BKN050 OVC100=



000
FTUS43 KGRR 231500 AAC
TAFLAN
TAF AMD
KLAN 231501Z 2315/2412 19008KT P6SM BKN250
     FM240400 21004KT 5SM BR VCSH BKN050 OVC100=



000
FTUS43 KGRR 231500 AAB
TAFJXN
TAF AMD
KJXN 231501Z 2315/2412 25004KT P6SM BKN250
     FM231900 21007KT P6SM BKN200
     FM240400 21004KT 5SM BR VCSH BKN050 OVC100=



000
FTUS43 KGRR 231400 AAB
TAFLAN
TAF AMD
KLAN 231425Z 2314/2412 00000KT 0SM FG VV002
     FM231500 17004KT 1SM BR BKN015
     FM231600 19006KT 2SM BR BKN250
     FM231700 19008KT P6SM BKN250
     FM231900 21007KT P6SM BKN200
     FM240400 21004KT 5SM BR VCSH BKN050 OVC100=



000
FTUS43 KGRR 231400 AAB
TAFLAN
TAF AMD
KLAN 231425Z 2314/2412 00000KT 0SM FG VV002
     FM231500 17004KT 1SM BR BKN015
     FM231600 19006KT 2SM BR BKN250
     FM231700 19008KT P6SM BKN250
     FM231900 21007KT P6SM BKN200
     FM240400 21004KT 5SM BR VCSH BKN050 OVC100=



000
FTUS43 KGRR 231400 AAA
TAFJXN
TAF AMD
KJXN 231425Z 2314/2412 00000KT 1/2SM FG VV001
     FM231500 17004KT 1SM BR BKN015
     FM231600 19006KT 2SM BR BKN250
     FM231700 19008KT P6SM BKN250
     FM231900 21007KT P6SM BKN200
     FM240400 21004KT 5SM BR VCSH BKN050 OVC100=



000
FTUS43 KGRR 231400 AAA
TAFJXN
TAF AMD
KJXN 231425Z 2314/2412 00000KT 1/2SM FG VV001
     FM231500 17004KT 1SM BR BKN015
     FM231600 19006KT 2SM BR BKN250
     FM231700 19008KT P6SM BKN250
     FM231900 21007KT P6SM BKN200
     FM240400 21004KT 5SM BR VCSH BKN050 OVC100=



000
FTUS43 KGRR 231400 AAA
TAFBTL
TAF AMD
KBTL 231424Z 2314/2412 22003KT 1/2SM FG VV001
     FM231500 18005KT 2SM BR BKN015
     FM231600 19006KT P6SM BKN250
     FM231900 21009KT P6SM BKN200
     FM240400 21006KT 5SM BR VCSH BKN050 OVC100=



000
FTUS43 KGRR 231400 AAA
TAFBTL
TAF AMD
KBTL 231424Z 2314/2412 22003KT 1/2SM FG VV001
     FM231500 18005KT 2SM BR BKN015
     FM231600 19006KT P6SM BKN250
     FM231900 21009KT P6SM BKN200
     FM240400 21006KT 5SM BR VCSH BKN050 OVC100=



000
FTUS43 KGRR 231400 AAB
TAFAZO
TAF AMD
KAZO 231424Z 2314/2412 23004KT 1/2SM FG OVC002
     FM231500 18005KT 2SM BR BKN015
     FM231600 19006KT P6SM BKN250
     FM231900 20009KT P6SM BKN200
     FM240300 21006KT 5SM -RA BR BKN050 OVC100=



000
FTUS43 KGRR 231400 AAB
TAFAZO
TAF AMD
KAZO 231424Z 2314/2412 23004KT 1/2SM FG OVC002
     FM231500 18005KT 2SM BR BKN015
     FM231600 19006KT P6SM BKN250
     FM231900 20009KT P6SM BKN200
     FM240300 21006KT 5SM -RA BR BKN050 OVC100=



000
FTUS43 KGRR 231400 AAB
TAFGRR
TAF AMD
KGRR 231423Z 2314/2412 00000KT 1/2SM FG SCT002 BKN230
     FM231435 15005KT 4SM BR FEW002 BKN250
     FM231500 16005KT P6SM BKN250
     FM231900 19009KT P6SM BKN200
     FM240300 20006KT P6SM -RA BKN050 OVC100=



000
FTUS43 KGRR 231400 AAB
TAFMKG
TAF AMD
KMKG 231423Z 2314/2412 12004KT 3SM BR BKN003 OVC022
     FM231500 16005KT P6SM BKN250
     FM231900 19009KT P6SM BKN200
     FM240300 20006KT P6SM -RA BKN050 OVC100=



000
FTUS43 KGRR 231400 AAB
TAFMKG
TAF AMD
KMKG 231423Z 2314/2412 12004KT 3SM BR BKN003 OVC022
     FM231500 16005KT P6SM BKN250
     FM231900 19009KT P6SM BKN200
     FM240300 20006KT P6SM -RA BKN050 OVC100=



000
FTUS43 KGRR 231400 AAB
TAFGRR
TAF AMD
KGRR 231423Z 2314/2412 00000KT 1/2SM FG SCT002 BKN230
     FM231435 15005KT 4SM BR FEW002 BKN250
     FM231500 16005KT P6SM BKN250
     FM231900 19009KT P6SM BKN200
     FM240300 20006KT P6SM -RA BKN050 OVC100=



000
FTUS43 KGRR 231300 AAA
TAFLAN
TAF AMD
KLAN 231303Z 2313/2412 00000KT 0SM FZFG VV001
     FM231400 16003KT 2SM BR BKN006
     FM231500 17004KT 5SM BR BKN015
     FM231600 19006KT P6SM BKN250
     FM231900 21007KT P6SM BKN200
     FM240400 21004KT 5SM BR VCSH BKN050 OVC100=



000
FTUS43 KGRR 231300 AAA
TAFAZO
TAF AMD
KAZO 231302Z 2313/2412 VRB03KT 0SM FG VV002
     FM231400 16005KT 2SM BR BKN009
     FM231500 18005KT 5SM BR BKN015
     FM231630 19006KT P6SM BKN250
     FM231900 20009KT P6SM BKN200
     FM240300 21006KT 5SM -RA BR BKN050 OVC100=



000
FTUS43 KGRR 231300 AAA
TAFGRR
TAF AMD
KGRR 231302Z 2313/2412 09003KT 1/2SM FZFG BKN002 BKN210
     FM231400 15005KT 4SM BR FEW002 BKN250
     FM231500 16005KT P6SM BKN250
     FM231900 19009KT P6SM BKN200
     FM240300 20006KT P6SM -RA BKN050 OVC100=



000
FTUS43 KGRR 231300 AAA
TAFMKG
TAF AMD
KMKG 231301Z 2313/2412 12005KT 1SM BR OVC002
     FM231400 14005KT 4SM BR FEW002 BKN250
     FM231500 16005KT P6SM BKN250
     FM231900 19009KT P6SM BKN200
     FM240300 20006KT P6SM -RA BKN050 OVC100=



000
FTUS43 KGRR 231100
TAFBTL
TAF
KBTL 231128Z 2312/2412 00000KT 1/4SM FG VV001
     FM231400 16005KT 2SM BR BKN009
     FM231500 18005KT 5SM BR BKN015
     FM231630 19006KT P6SM BKN250
     FM231900 21009KT P6SM BKN200
     FM240400 21006KT 5SM BR VCSH BKN050 OVC100=



000
FTUS43 KGRR 231100
TAFAZO
TAF
KAZO 231128Z 2312/2412 00000KT 1/4SM FG VV001
     FM231400 16005KT 2SM BR BKN009
     FM231500 18005KT 5SM BR BKN015
     FM231630 19006KT P6SM BKN250
     FM231900 20009KT P6SM BKN200
     FM240300 21006KT 5SM -RA BR BKN050 OVC100=



000
FTUS43 KGRR 231100
TAFGRR
TAF
KGRR 231128Z 2312/2412 13005KT 2SM BR BKN003
      TEMPO 2312/2314 1/4SM FG VV001
     FM231400 15005KT 4SM BR BKN009
     FM231500 16005KT P6SM BKN250
     FM231900 19009KT P6SM BKN200
     FM240300 20006KT P6SM -RA BKN050 OVC100=



000
FTUS43 KGRR 231100
TAFMKG
TAF
KMKG 231128Z 2312/2412 13005KT 3SM BR SCT250
      TEMPO 2312/2314 2SM BR BKN009
     FM231500 16005KT P6SM BKN250
     FM231900 19009KT P6SM BKN200
     FM240300 20006KT P6SM -RA BKN050 OVC100=



000
FTUS43 KGRR 231100
TAFJXN
TAF
KJXN 231128Z 2312/2412 00000KT 1/4SM FG VV001
     FM231400 16005KT 2SM BR BKN009
     FM231500 18005KT 5SM BR BKN015
     FM231630 19006KT P6SM BKN250
     FM231900 21009KT P6SM BKN200
     FM240400 21006KT 5SM BR VCSH BKN050 OVC100=



000
FTUS43 KGRR 231100
TAFLAN
TAF
KLAN 231128Z 2312/2412 00000KT 5SM BR BKN001
      TEMPO 2312/2314 1SM BR OVC001
     FM231400 16003KT 2SM BR BKN006
     FM231500 17004KT 5SM BR BKN015
     FM231600 19006KT P6SM BKN250
     FM231900 21007KT P6SM BKN200
     FM240400 21004KT 5SM BR VCSH BKN050 OVC100=



000
FTUS43 KGRR 230900 AAB
TAFBTL
TAF AMD
KBTL 230948Z 2310/2406 00000KT 1/4SM FG VV001
     FM231400 18004KT 3SM BR BKN008
     FM231500 20006KT P6SM SCT020
     FM240500 21004KT P6SM -SHRA OVC060=



000
FTUS43 KGRR 230900 AAB
TAFBTL
TAF AMD
KBTL 230948Z 2310/2406 00000KT 1/4SM FG VV001
     FM231400 18004KT 3SM BR BKN008
     FM231500 20006KT P6SM SCT020
     FM240500 21004KT P6SM -SHRA OVC060=



000
FTUS43 KGRR 230900 AAA
TAFGRR
TAF AMD
KGRR 230947Z 2310/2406 00000KT 1/4SM FG VV001
     FM231400 14004KT 3SM BR BKN008
     FM231530 15005KT P6SM SCT015
     FM240400 19004KT P6SM -SHRA OVC040=



000
FTUS43 KGRR 230900 AAA
TAFGRR
TAF AMD
KGRR 230947Z 2310/2406 00000KT 1/4SM FG VV001
     FM231400 14004KT 3SM BR BKN008
     FM231530 15005KT P6SM SCT015
     FM240400 19004KT P6SM -SHRA OVC040=



000
FTUS43 KGRR 230800 AAB
TAFJXN
TAF AMD
KJXN 230808Z 2308/2406 VRB03KT 1/4SM FG BKN002
     FM231100 VRB03KT 2SM BR BKN006
     FM231300 VRB03KT 3SM BR BKN006
     FM231500 22004KT P6SM SCT020=



000
FTUS43 KGRR 230800 AAB
TAFJXN
TAF AMD
KJXN 230808Z 2308/2406 VRB03KT 1/4SM FG BKN002
     FM231100 VRB03KT 2SM BR BKN006
     FM231300 VRB03KT 3SM BR BKN006
     FM231500 22004KT P6SM SCT020=



000
FTUS43 KGRR 230800 AAB
TAFAZO
TAF AMD
KAZO 230805Z 2308/2406 VRB03KT 1/4SM FG BKN002
     FM231100 VRB03KT 2SM BR BKN006
     FM231500 19006KT P6SM SCT020
     FM240500 21003KT P6SM -SHRA OVC040=



000
FTUS43 KGRR 230800 AAB
TAFAZO
TAF AMD
KAZO 230805Z 2308/2406 VRB03KT 1/4SM FG BKN002
     FM231100 VRB03KT 2SM BR BKN006
     FM231500 19006KT P6SM SCT020
     FM240500 21003KT P6SM -SHRA OVC040=



000
FTUS43 KGRR 230700 AAA
TAFBTL
TAF AMD
KBTL 230735Z 2308/2406 VRB03KT 4SM BR OVC002
      TEMPO 2308/2312 1SM BR
     FM231300 18004KT 3SM BR BKN006
     FM231500 20006KT P6SM SCT020
     FM240500 21004KT P6SM -SHRA OVC060=



000
FTUS43 KGRR 230700 AAA
TAFJXN
TAF AMD
KJXN 230732Z 2308/2406 VRB03KT 1 1/2SM BR OVC003
      TEMPO 2308/2312 1/2SM FG
     FM231300 VRB03KT 3SM BR BKN006
     FM231500 22004KT P6SM SCT020=



000
FTUS43 KGRR 230700 AAA
TAFAZO
TAF AMD
KAZO 230720Z 2307/2406 VRB03KT 1/2SM FG BKN002
     FM230800 VRB03KT 2SM BR BKN006
     FM231500 19006KT P6SM SCT020
     FM240500 21003KT P6SM -SHRA OVC040=



000
FTUS43 KGRR 230500
TAFJXN
TAF
KJXN 230540Z 2306/2406 VRB03KT P6SM SCT012 SCT150
      TEMPO 2311/2313 3SM BR=



000
FTUS43 KGRR 230500
TAFAZO
TAF
KAZO 230540Z 2306/2406 VRB03KT 4SM BR SKC
      TEMPO 2310/2312 2SM BR
     FM240500 21003KT P6SM -SHRA OVC040=



000
FTUS43 KGRR 230500
TAFBTL
TAF
KBTL 230540Z 2306/2406 VRB03KT 4SM BR SKC
      TEMPO 2308/2312 2SM BR
     FM240500 21004KT P6SM -SHRA OVC060=



000
FTUS43 KGRR 230500
TAFLAN
TAF
KLAN 230540Z 2306/2406 VRB03KT 2SM BR SCT150
      TEMPO 2306/2310 1/2SM FG
     FM231300 VRB03KT P6SM SCT150=



000
FTUS43 KGRR 230500
TAFMKG
TAF
KMKG 230540Z 2306/2406 14003KT P6SM SKC
      TEMPO 2308/2310 3SM BR
     FM231000 VRB03KT 4SM BR SKC
      TEMPO 2310/2312 2SM BR
     FM231300 18011KT P6SM BKN250
     FM232200 18005KT P6SM -SHRA OVC060
     FM240300 20005KT 5SM BR OVC015
     FM240500 20005KT 3SM BR OVC007=



000
FTUS43 KGRR 230500
TAFGRR
TAF
KGRR 230540Z 2306/2406 VRB03KT 4SM BR SCT012
      TEMPO 2308/2312 2SM BR
     FM240400 19004KT P6SM -SHRA OVC040=



    US Dept of Commerce
    National Oceanic and Atmospheric Administration
    National Weather Service
    1325 East West Highway
    Silver Spring, MD 20910
    Page Author: NWS Internet Services Team
Disclaimer
Information Quality
Credits
Glossary
Privacy Policy
Freedom of Information Act (FOIA)
About Us
Career Opportunities